sensor_id;sensor_type;location;lat;lon;timestamp;pressure;altitude;pressure_sealevel;temperature;humidity
63916;BME280;50094;51.356;-0.196;2022-12-16T00:01:49;100642.65;;;18.79;22.74
63916;BME280;50094;51.356;-0.196;2022-12-16T00:04:16;100643.19;;;18.92;22.76
63916;BME280;50094;51.356;-0.196;2022-12-16T00:06:43;100645.94;;;19.05;22.78
63916;BME280;50094;51.356;-0.196;2022-12-16T00:09:11;100640.60;;;18.63;22.82
63916;BME280;50094;51.356;-0.196;2022-12-16T00:11:38;100642.16;;;18.87;22.83
63916;BME280;50094;51.356;-0.196;2022-12-16T00:14:05;100640.61;;;18.51;22.87
63916;BME280;50094;51.356;-0.196;2022-12-16T00:16:32;100639.81;;;18.50;22.86
63916;BME280;50094;51.356;-0.196;2022-12-16T00:19:00;100640.92;;;18.41;22.89
63916;BME280;50094;51.356;-0.196;2022-12-16T00:21:27;100644.41;;;18.69;22.89
63916;BME280;50094;51.356;-0.196;2022-12-16T00:23:54;100647.59;;;18.37;22.91
63916;BME280;50094;51.356;-0.196;2022-12-16T00:26:22;100646.44;;;18.38;22.89
63916;BME280;50094;51.356;-0.196;2022-12-16T00:28:49;100641.97;;;18.71;22.86
63916;BME280;50094;51.356;-0.196;2022-12-16T00:31:17;100642.88;;;18.39;22.86
63916;BME280;50094;51.356;-0.196;2022-12-16T00:33:43;100643.91;;;18.33;22.88
63916;BME280;50094;51.356;-0.196;2022-12-16T00:36:10;100644.09;;;18.33;22.87
63916;BME280;50094;51.356;-0.196;2022-12-16T00:38:38;100646.73;;;18.27;22.88
63916;BME280;50094;51.356;-0.196;2022-12-16T00:41:05;100651.78;;;18.53;22.87
63916;BME280;50094;51.356;-0.196;2022-12-16T00:43:32;100647.83;;;18.24;22.87
63916;BME280;50094;51.356;-0.196;2022-12-16T00:45:59;100648.86;;;18.28;22.84
63916;BME280;50094;51.356;-0.196;2022-12-16T00:48:26;100650.67;;;18.25;22.84
63916;BME280;50094;51.356;-0.196;2022-12-16T00:50:54;100652.06;;;18.50;22.83
63916;BME280;50094;51.356;-0.196;2022-12-16T00:53:22;100650.93;;;18.70;22.82
63916;BME280;50094;51.356;-0.196;2022-12-16T00:55:49;100649.37;;;18.18;22.82
63916;BME280;50094;51.356;-0.196;2022-12-16T00:58:16;100650.67;;;18.68;22.81
63916;BME280;50094;51.356;-0.196;2022-12-16T01:00:43;100653.13;;;18.46;22.79
63916;BME280;50094;51.356;-0.196;2022-12-16T01:03:11;100651.32;;;18.47;22.78
63916;BME280;50094;51.356;-0.196;2022-12-16T01:05:38;100649.13;;;18.39;22.79
63916;BME280;50094;51.356;-0.196;2022-12-16T01:08:05;100651.96;;;18.37;22.78
63916;BME280;50094;51.356;-0.196;2022-12-16T01:10:32;100651.83;;;18.12;22.77
63916;BME280;50094;51.356;-0.196;2022-12-16T01:12:59;100655.43;;;18.62;22.76
63916;BME280;50094;51.356;-0.196;2022-12-16T01:15:26;100654.98;;;18.15;22.74
63916;BME280;50094;51.356;-0.196;2022-12-16T01:17:53;100655.07;;;18.48;22.71
63916;BME280;50094;51.356;-0.196;2022-12-16T01:20:21;100657.95;;;18.21;22.68
63916;BME280;50094;51.356;-0.196;2022-12-16T01:22:48;100657.93;;;18.16;22.68
63916;BME280;50094;51.356;-0.196;2022-12-16T01:25:16;100661.82;;;18.41;22.67
63916;BME280;50094;51.356;-0.196;2022-12-16T01:27:42;100662.96;;;18.14;22.66
63916;BME280;50094;51.356;-0.196;2022-12-16T01:30:11;100665.19;;;18.60;22.66
63916;BME280;50094;51.356;-0.196;2022-12-16T01:32:38;100668.09;;;18.56;22.65
63916;BME280;50094;51.356;-0.196;2022-12-16T01:35:06;100672.30;;;18.00;22.67
63916;BME280;50094;51.356;-0.196;2022-12-16T01:37:33;100675.61;;;18.27;22.65
63916;BME280;50094;51.356;-0.196;2022-12-16T01:40:00;100673.41;;;18.35;22.60
63916;BME280;50094;51.356;-0.196;2022-12-16T01:42:27;100673.34;;;18.51;22.62
63916;BME280;50094;51.356;-0.196;2022-12-16T01:44:54;100673.53;;;17.95;22.64
63916;BME280;50094;51.356;-0.196;2022-12-16T01:47:24;100679.70;;;18.21;22.63
63916;BME280;50094;51.356;-0.196;2022-12-16T01:49:55;100683.79;;;17.94;22.61
63916;BME280;50094;51.356;-0.196;2022-12-16T01:52:30;100684.99;;;18.00;22.58
63916;BME280;50094;51.356;-0.196;2022-12-16T01:55:01;100688.79;;;17.95;22.59
63916;BME280;50094;51.356;-0.196;2022-12-16T01:57:32;100695.97;;;18.23;22.57
63916;BME280;50094;51.356;-0.196;2022-12-16T02:00:04;100707.80;;;17.94;22.56
63916;BME280;50094;51.356;-0.196;2022-12-16T02:02:32;100715.16;;;18.19;22.55
63916;BME280;50094;51.356;-0.196;2022-12-16T02:04:59;100714.97;;;18.42;22.53
63916;BME280;50094;51.356;-0.196;2022-12-16T02:07:27;100714.75;;;18.18;22.52
63916;BME280;50094;51.356;-0.196;2022-12-16T02:09:55;100717.90;;;18.11;22.52
63916;BME280;50094;51.356;-0.196;2022-12-16T02:12:28;100722.74;;;18.11;22.51
63916;BME280;50094;51.356;-0.196;2022-12-16T02:15:12;100725.01;;;18.09;22.51
63916;BME280;50094;51.356;-0.196;2022-12-16T02:17:50;100731.30;;;18.29;22.51
63916;BME280;50094;51.356;-0.196;2022-12-16T02:22:39;100729.79;;;18.14;22.54
63916;BME280;50094;51.356;-0.196;2022-12-16T02:25:26;100729.17;;;18.04;22.48
63916;BME280;50094;51.356;-0.196;2022-12-16T02:28:02;100727.00;;;18.03;22.49
63916;BME280;50094;51.356;-0.196;2022-12-16T02:30:40;100726.22;;;18.17;22.51
63916;BME280;50094;51.356;-0.196;2022-12-16T02:33:24;100729.11;;;17.81;22.45
63916;BME280;50094;51.356;-0.196;2022-12-16T02:36:01;100732.88;;;18.06;22.46
63916;BME280;50094;51.356;-0.196;2022-12-16T02:38:40;100731.71;;;17.97;22.48
63916;BME280;50094;51.356;-0.196;2022-12-16T02:41:16;100732.98;;;18.21;22.47
63916;BME280;50094;51.356;-0.196;2022-12-16T02:43:52;100736.37;;;18.13;22.50
63916;BME280;50094;51.356;-0.196;2022-12-16T02:46:23;100734.69;;;17.89;22.52
63916;BME280;50094;51.356;-0.196;2022-12-16T02:48:51;100737.52;;;18.14;22.51
63916;BME280;50094;51.356;-0.196;2022-12-16T02:51:20;100741.17;;;18.10;22.52
63916;BME280;50094;51.356;-0.196;2022-12-16T02:53:49;100740.50;;;18.04;22.56
63916;BME280;50094;51.356;-0.196;2022-12-16T02:56:27;100738.48;;;17.89;22.52
63916;BME280;50094;51.356;-0.196;2022-12-16T02:59:05;100734.83;;;18.14;22.51
63916;BME280;50094;51.356;-0.196;2022-12-16T03:01:39;100736.38;;;18.06;22.53
63916;BME280;50094;51.356;-0.196;2022-12-16T03:04:13;100737.55;;;18.00;22.56
63916;BME280;50094;51.356;-0.196;2022-12-16T03:06:44;100736.79;;;17.99;22.57
63916;BME280;50094;51.356;-0.196;2022-12-16T03:09:18;100742.23;;;17.51;22.58
63916;BME280;50094;51.356;-0.196;2022-12-16T03:11:47;100749.70;;;17.80;22.56
63916;BME280;50094;51.356;-0.196;2022-12-16T03:14:18;100755.37;;;18.05;22.53
63916;BME280;50094;51.356;-0.196;2022-12-16T03:16:46;100761.93;;;17.77;22.54
63916;BME280;50094;51.356;-0.196;2022-12-16T03:19:15;100758.31;;;17.96;22.56
63916;BME280;50094;51.356;-0.196;2022-12-16T03:21:47;100764.45;;;17.95;22.56
63916;BME280;50094;51.356;-0.196;2022-12-16T03:24:17;100766.80;;;17.95;22.56
63916;BME280;50094;51.356;-0.196;2022-12-16T03:26:50;100771.66;;;18.17;22.58
63916;BME280;50094;51.356;-0.196;2022-12-16T03:29:25;100776.68;;;17.92;22.59
63916;BME280;50094;51.356;-0.196;2022-12-16T03:31:58;100777.39;;;17.91;22.59
63916;BME280;50094;51.356;-0.196;2022-12-16T03:34:32;100778.65;;;17.89;22.61
63916;BME280;50094;51.356;-0.196;2022-12-16T03:37:04;100774.90;;;17.67;22.61
63916;BME280;50094;51.356;-0.196;2022-12-16T03:39:36;100771.90;;;17.88;22.62
63916;BME280;50094;51.356;-0.196;2022-12-16T03:42:05;100771.44;;;17.89;22.62
63916;BME280;50094;51.356;-0.196;2022-12-16T03:44:34;100772.01;;;17.87;22.62
63916;BME280;50094;51.356;-0.196;2022-12-16T03:47:01;100771.67;;;17.89;22.61
63916;BME280;50094;51.356;-0.196;2022-12-16T03:49:28;100774.30;;;17.86;22.61
63916;BME280;50094;51.356;-0.196;2022-12-16T03:51:56;100776.95;;;18.09;22.60
63916;BME280;50094;51.356;-0.196;2022-12-16T03:54:23;100778.81;;;18.34;22.60
63916;BME280;50094;51.356;-0.196;2022-12-16T03:56:50;100779.57;;;17.61;22.61
63916;BME280;50094;51.356;-0.196;2022-12-16T03:59:17;100780.36;;;17.80;22.63
63916;BME280;50094;51.356;-0.196;2022-12-16T04:01:44;100782.67;;;17.78;22.64
63916;BME280;50094;51.356;-0.196;2022-12-16T04:04:12;100787.25;;;17.85;22.62
63916;BME280;50094;51.356;-0.196;2022-12-16T04:06:38;100789.76;;;17.61;22.63
63916;BME280;50094;51.356;-0.196;2022-12-16T04:09:06;100792.60;;;17.81;22.64
63916;BME280;50094;51.356;-0.196;2022-12-16T04:11:34;100793.92;;;17.83;22.63
63916;BME280;50094;51.356;-0.196;2022-12-16T04:14:01;100798.57;;;17.80;22.65
63916;BME280;50094;51.356;-0.196;2022-12-16T04:16:28;100799.38;;;17.79;22.66
63916;BME280;50094;51.356;-0.196;2022-12-16T04:18:56;100802.67;;;17.79;22.67
63916;BME280;50094;51.356;-0.196;2022-12-16T04:21:23;100805.67;;;17.84;22.65
63916;BME280;50094;51.356;-0.196;2022-12-16T04:23:52;100809.60;;;17.85;22.66
63916;BME280;50094;51.356;-0.196;2022-12-16T04:26:21;100808.61;;;17.83;22.66
63916;BME280;50094;51.356;-0.196;2022-12-16T04:28:48;100805.32;;;17.82;22.67
63916;BME280;50094;51.356;-0.196;2022-12-16T04:31:15;100802.34;;;17.85;22.65
63916;BME280;50094;51.356;-0.196;2022-12-16T04:33:43;100803.21;;;17.83;22.65
63916;BME280;50094;51.356;-0.196;2022-12-16T04:36:10;100803.39;;;17.83;22.64
63916;BME280;50094;51.356;-0.196;2022-12-16T04:38:37;100805.20;;;17.81;22.64
63916;BME280;50094;51.356;-0.196;2022-12-16T04:41:05;100806.65;;;17.82;22.63
63916;BME280;50094;51.356;-0.196;2022-12-16T04:43:32;100809.19;;;17.74;22.65
63916;BME280;50094;51.356;-0.196;2022-12-16T04:45:59;100810.89;;;17.72;22.66
63916;BME280;50094;51.356;-0.196;2022-12-16T04:48:26;100812.48;;;17.48;22.66
63916;BME280;50094;51.356;-0.196;2022-12-16T04:50:53;100816.84;;;17.50;22.65
63916;BME280;50094;51.356;-0.196;2022-12-16T04:53:20;100817.12;;;17.71;22.65
63916;BME280;50094;51.356;-0.196;2022-12-16T04:55:47;100817.42;;;17.70;22.64
63916;BME280;50094;51.356;-0.196;2022-12-16T04:58:14;100820.68;;;17.90;22.64
63916;BME280;50094;51.356;-0.196;2022-12-16T05:00:42;100822.04;;;17.68;22.64
63916;BME280;50094;51.356;-0.196;2022-12-16T05:03:10;100824.27;;;17.67;22.64
63916;BME280;50094;51.356;-0.196;2022-12-16T05:05:38;100826.11;;;17.90;22.62
63916;BME280;50094;51.356;-0.196;2022-12-16T05:08:05;100828.68;;;17.62;22.64
63916;BME280;50094;51.356;-0.196;2022-12-16T05:10:32;100829.69;;;17.66;22.61
63916;BME280;50094;51.356;-0.196;2022-12-16T05:12:59;100823.70;;;17.65;22.60
63916;BME280;50094;51.356;-0.196;2022-12-16T05:15:26;100822.60;;;17.82;22.60
63916;BME280;50094;51.356;-0.196;2022-12-16T05:17:53;100823.57;;;17.60;22.60
63916;BME280;50094;51.356;-0.196;2022-12-16T05:20:20;100824.63;;;17.60;22.59
63916;BME280;50094;51.356;-0.196;2022-12-16T05:22:48;100822.94;;;17.80;22.59
63916;BME280;50094;51.356;-0.196;2022-12-16T05:25:15;100823.26;;;17.58;22.57
63916;BME280;50094;51.356;-0.196;2022-12-16T05:27:42;100827.01;;;17.57;22.56
63916;BME280;50094;51.356;-0.196;2022-12-16T05:30:09;100829.06;;;17.55;22.56
63916;BME280;50094;51.356;-0.196;2022-12-16T05:32:37;100830.33;;;17.59;22.53
63916;BME280;50094;51.356;-0.196;2022-12-16T05:35:04;100830.94;;;17.56;22.55
63916;BME280;50094;51.356;-0.196;2022-12-16T05:37:32;100834.53;;;17.57;22.60
63916;BME280;50094;51.356;-0.196;2022-12-16T05:39:59;100836.72;;;17.62;22.67
63916;BME280;50094;51.356;-0.196;2022-12-16T05:42:26;100839.17;;;17.45;22.74
63916;BME280;50094;51.356;-0.196;2022-12-16T05:44:53;100844.45;;;17.84;22.78
63916;BME280;50094;51.356;-0.196;2022-12-16T05:47:20;100846.72;;;17.92;22.82
63916;BME280;50094;51.356;-0.196;2022-12-16T05:49:47;100851.94;;;17.79;22.84
63916;BME280;50094;51.356;-0.196;2022-12-16T05:52:14;100850.46;;;18.13;22.84
63916;BME280;50094;51.356;-0.196;2022-12-16T05:54:41;100855.28;;;18.09;22.80
63916;BME280;50094;51.356;-0.196;2022-12-16T05:57:08;100856.82;;;18.18;22.80
63916;BME280;50094;51.356;-0.196;2022-12-16T05:59:35;100859.24;;;18.45;22.81
63916;BME280;50094;51.356;-0.196;2022-12-16T06:02:02;100861.88;;;18.02;22.81
63916;BME280;50094;51.356;-0.196;2022-12-16T06:04:29;100863.49;;;18.08;22.82
63916;BME280;50094;51.356;-0.196;2022-12-16T06:06:57;100865.26;;;18.44;22.81
63916;BME280;50094;51.356;-0.196;2022-12-16T06:09:24;100864.46;;;18.21;22.80
63916;BME280;50094;51.356;-0.196;2022-12-16T06:11:51;100859.45;;;18.24;22.80
63916;BME280;50094;51.356;-0.196;2022-12-16T06:14:19;100863.17;;;18.28;22.82
63916;BME280;50094;51.356;-0.196;2022-12-16T06:16:46;100864.96;;;18.40;22.79
63916;BME280;50094;51.356;-0.196;2022-12-16T06:19:13;100863.87;;;18.70;22.79
63916;BME280;50094;51.356;-0.196;2022-12-16T06:21:40;100865.61;;;18.70;22.79
63916;BME280;50094;51.356;-0.196;2022-12-16T06:24:07;100869.35;;;18.42;22.80
63916;BME280;50094;51.356;-0.196;2022-12-16T06:26:34;100867.84;;;18.55;22.74
63916;BME280;50094;51.356;-0.196;2022-12-16T06:29:01;100863.01;;;18.49;22.72
63916;BME280;50094;51.356;-0.196;2022-12-16T06:31:28;100866.51;;;18.67;22.72
63916;BME280;50094;51.356;-0.196;2022-12-16T06:33:55;100871.96;;;18.59;22.80
63916;BME280;50094;51.356;-0.196;2022-12-16T06:36:22;100867.38;;;18.47;22.73
63916;BME280;50094;51.356;-0.196;2022-12-16T06:38:49;100870.30;;;18.48;22.69
63916;BME280;50094;51.356;-0.196;2022-12-16T06:41:16;100872.14;;;18.46;22.66
63916;BME280;50094;51.356;-0.196;2022-12-16T06:43:43;100873.53;;;18.68;22.64
63916;BME280;50094;51.356;-0.196;2022-12-16T06:46:10;100877.25;;;18.32;22.63
63916;BME280;50094;51.356;-0.196;2022-12-16T06:48:37;100883.10;;;18.46;22.64
63916;BME280;50094;51.356;-0.196;2022-12-16T06:51:05;100883.11;;;18.18;22.62
63916;BME280;50094;51.356;-0.196;2022-12-16T06:53:32;100880.72;;;18.61;22.63
63916;BME280;50094;51.356;-0.196;2022-12-16T06:55:59;100882.07;;;18.33;22.63
63916;BME280;50094;51.356;-0.196;2022-12-16T06:58:26;100885.76;;;18.10;22.59
63916;BME280;50094;51.356;-0.196;2022-12-16T07:00:54;100887.38;;;18.30;22.59
63916;BME280;50094;51.356;-0.196;2022-12-16T07:03:21;100888.39;;;18.25;22.59
63916;BME280;50094;51.356;-0.196;2022-12-16T07:05:51;100889.97;;;17.94;22.60
63916;BME280;50094;51.356;-0.196;2022-12-16T07:08:19;100893.79;;;17.90;22.61
63916;BME280;50094;51.356;-0.196;2022-12-16T07:10:46;100897.87;;;18.15;22.60
63916;BME280;50094;51.356;-0.196;2022-12-16T07:13:13;100898.76;;;18.12;22.61
63916;BME280;50094;51.356;-0.196;2022-12-16T07:15:40;100903.80;;;18.11;22.59
63916;BME280;50094;51.356;-0.196;2022-12-16T07:18:08;100903.95;;;18.07;22.61
63916;BME280;50094;51.356;-0.196;2022-12-16T07:20:35;100909.72;;;18.27;22.61
63916;BME280;50094;51.356;-0.196;2022-12-16T07:23:02;100913.14;;;18.09;22.57
63916;BME280;50094;51.356;-0.196;2022-12-16T07:25:30;100917.93;;;18.26;22.58
63916;BME280;50094;51.356;-0.196;2022-12-16T07:27:57;100922.69;;;18.14;22.61
63916;BME280;50094;51.356;-0.196;2022-12-16T07:30:24;100923.81;;;17.86;22.64
63916;BME280;50094;51.356;-0.196;2022-12-16T07:32:51;100924.77;;;18.05;22.63
63916;BME280;50094;51.356;-0.196;2022-12-16T07:35:18;100923.83;;;18.01;22.66
63916;BME280;50094;51.356;-0.196;2022-12-16T07:37:45;100923.86;;;17.75;22.67
63916;BME280;50094;51.356;-0.196;2022-12-16T07:40:12;100926.36;;;17.93;22.70
63916;BME280;50094;51.356;-0.196;2022-12-16T07:42:40;100928.92;;;17.96;22.70
63916;BME280;50094;51.356;-0.196;2022-12-16T07:45:08;100937.16;;;17.95;22.70
63916;BME280;50094;51.356;-0.196;2022-12-16T07:47:35;100940.91;;;17.96;22.69
63916;BME280;50094;51.356;-0.196;2022-12-16T07:50:03;100946.43;;;17.92;22.70
63916;BME280;50094;51.356;-0.196;2022-12-16T07:52:30;100951.59;;;17.90;22.71
63916;BME280;50094;51.356;-0.196;2022-12-16T07:54:57;100955.18;;;17.66;22.72
63916;BME280;50094;51.356;-0.196;2022-12-16T07:57:24;100960.45;;;17.62;22.73
63916;BME280;50094;51.356;-0.196;2022-12-16T07:59:51;100964.27;;;17.86;22.73
63916;BME280;50094;51.356;-0.196;2022-12-16T08:02:18;100972.64;;;17.64;22.73
63916;BME280;50094;51.356;-0.196;2022-12-16T08:04:45;100972.84;;;17.91;22.71
63916;BME280;50094;51.356;-0.196;2022-12-16T08:07:12;100976.52;;;17.82;22.73
63916;BME280;50094;51.356;-0.196;2022-12-16T08:09:40;100976.00;;;17.56;22.74
63916;BME280;50094;51.356;-0.196;2022-12-16T08:12:07;100979.53;;;17.57;22.73
63916;BME280;50094;51.356;-0.196;2022-12-16T08:14:34;100980.32;;;17.52;22.74
63916;BME280;50094;51.356;-0.196;2022-12-16T08:17:01;100983.28;;;17.71;22.76
63916;BME280;50094;51.356;-0.196;2022-12-16T08:19:28;100985.18;;;17.67;22.77
63916;BME280;50094;51.356;-0.196;2022-12-16T08:21:55;100985.16;;;17.69;22.77
63916;BME280;50094;51.356;-0.196;2022-12-16T08:24:22;100991.06;;;17.70;22.77
63916;BME280;50094;51.356;-0.196;2022-12-16T08:26:49;100997.18;;;17.71;22.76
63916;BME280;50094;51.356;-0.196;2022-12-16T08:29:16;100993.55;;;17.73;22.74
63916;BME280;50094;51.356;-0.196;2022-12-16T08:31:43;100992.35;;;17.44;22.75
63916;BME280;50094;51.356;-0.196;2022-12-16T08:34:10;100992.85;;;17.63;22.77
63916;BME280;50094;51.356;-0.196;2022-12-16T08:36:37;100992.19;;;17.69;22.74
63916;BME280;50094;51.356;-0.196;2022-12-16T08:39:05;100991.17;;;17.66;22.73
63916;BME280;50094;51.356;-0.196;2022-12-16T08:41:32;100996.98;;;17.68;22.73
63916;BME280;50094;51.356;-0.196;2022-12-16T08:43:59;101005.44;;;17.70;22.70
63916;BME280;50094;51.356;-0.196;2022-12-16T08:46:26;101007.85;;;17.63;22.73
63916;BME280;50094;51.356;-0.196;2022-12-16T08:48:53;101013.57;;;17.59;22.74
63916;BME280;50094;51.356;-0.196;2022-12-16T08:51:20;101015.11;;;18.09;22.74
63916;BME280;50094;51.356;-0.196;2022-12-16T08:53:47;101016.68;;;17.57;22.74
63916;BME280;50094;51.356;-0.196;2022-12-16T08:56:15;101017.36;;;17.81;22.72
63916;BME280;50094;51.356;-0.196;2022-12-16T08:58:42;101020.14;;;17.36;22.74
63916;BME280;50094;51.356;-0.196;2022-12-16T09:01:10;101019.33;;;17.61;22.73
63916;BME280;50094;51.356;-0.196;2022-12-16T09:03:37;101023.44;;;17.61;22.74
63916;BME280;50094;51.356;-0.196;2022-12-16T09:06:04;101030.03;;;17.62;22.72
63916;BME280;50094;51.356;-0.196;2022-12-16T09:08:31;101033.02;;;17.62;22.74
63916;BME280;50094;51.356;-0.196;2022-12-16T09:10:59;101033.58;;;17.62;22.74
63916;BME280;50094;51.356;-0.196;2022-12-16T09:13:27;101038.61;;;17.61;22.74
63916;BME280;50094;51.356;-0.196;2022-12-16T09:15:54;101040.77;;;17.60;22.75
63916;BME280;50094;51.356;-0.196;2022-12-16T09:18:21;101041.80;;;17.59;22.75
63916;BME280;50094;51.356;-0.196;2022-12-16T09:20:50;101044.16;;;17.80;22.77
63916;BME280;50094;51.356;-0.196;2022-12-16T09:23:17;101046.01;;;17.35;22.78
63916;BME280;50094;51.356;-0.196;2022-12-16T09:25:44;101048.39;;;17.58;22.77
63916;BME280;50094;51.356;-0.196;2022-12-16T09:28:11;101048.15;;;17.60;22.78
63916;BME280;50094;51.356;-0.196;2022-12-16T09:30:38;101046.77;;;17.63;22.77
63916;BME280;50094;51.356;-0.196;2022-12-16T09:33:05;101048.20;;;17.62;22.79
63916;BME280;50094;51.356;-0.196;2022-12-16T09:35:32;101051.83;;;17.61;22.80
63916;BME280;50094;51.356;-0.196;2022-12-16T09:37:59;101048.68;;;17.41;22.79
63916;BME280;50094;51.356;-0.196;2022-12-16T09:40:32;101046.08;;;17.62;22.81
63916;BME280;50094;51.356;-0.196;2022-12-16T09:43:04;101045.66;;;17.59;22.81
63916;BME280;50094;51.356;-0.196;2022-12-16T09:45:40;101043.74;;;17.82;22.82
63916;BME280;50094;51.356;-0.196;2022-12-16T09:48:20;101044.26;;;17.50;22.97
63916;BME280;50094;51.356;-0.196;2022-12-16T09:50:53;101046.41;;;17.53;22.94
63916;BME280;50094;51.356;-0.196;2022-12-16T09:53:22;101049.11;;;17.56;22.93
63916;BME280;50094;51.356;-0.196;2022-12-16T09:55:50;101050.88;;;17.56;22.93
63916;BME280;50094;51.356;-0.196;2022-12-16T09:58:19;101054.81;;;17.56;22.94
63916;BME280;50094;51.356;-0.196;2022-12-16T10:00:48;101058.38;;;17.75;22.95
63916;BME280;50094;51.356;-0.196;2022-12-16T10:03:21;101059.43;;;17.58;22.94
63916;BME280;50094;51.356;-0.196;2022-12-16T10:06:00;101062.56;;;17.59;22.95
63916;BME280;50094;51.356;-0.196;2022-12-16T10:08:37;101065.95;;;17.58;22.95
63916;BME280;50094;51.356;-0.196;2022-12-16T10:11:12;101074.26;;;17.82;22.96
63916;BME280;50094;51.356;-0.196;2022-12-16T10:13:50;101075.98;;;17.59;23.04
63916;BME280;50094;51.356;-0.196;2022-12-16T10:16:28;101075.47;;;17.60;23.09
63916;BME280;50094;51.356;-0.196;2022-12-16T10:19:03;101076.94;;;17.39;23.11
63916;BME280;50094;51.356;-0.196;2022-12-16T10:21:40;101077.88;;;17.64;23.12
63916;BME280;50094;51.356;-0.196;2022-12-16T10:24:19;101079.98;;;17.60;23.09
63916;BME280;50094;51.356;-0.196;2022-12-16T10:26:53;101080.51;;;17.76;23.02
63916;BME280;50094;51.356;-0.196;2022-12-16T10:29:27;101086.90;;;17.54;23.01
63916;BME280;50094;51.356;-0.196;2022-12-16T10:31:56;101089.10;;;18.07;23.00
63916;BME280;50094;51.356;-0.196;2022-12-16T10:34:26;101089.77;;;18.00;22.95
63916;BME280;50094;51.356;-0.196;2022-12-16T10:36:54;101092.47;;;18.25;22.94
63916;BME280;50094;51.356;-0.196;2022-12-16T10:39:27;101092.46;;;18.16;22.90
63916;BME280;50094;51.356;-0.196;2022-12-16T10:41:59;101093.92;;;18.18;22.89
63916;BME280;50094;51.356;-0.196;2022-12-16T10:44:32;101097.21;;;17.80;22.86
63916;BME280;50094;51.356;-0.196;2022-12-16T10:47:01;101095.37;;;18.37;22.81
63916;BME280;50094;51.356;-0.196;2022-12-16T10:49:29;101095.00;;;18.12;22.82
63916;BME280;50094;51.356;-0.196;2022-12-16T10:51:56;101095.20;;;18.08;22.86
63916;BME280;50094;51.356;-0.196;2022-12-16T10:54:31;101099.76;;;17.98;22.83
63916;BME280;50094;51.356;-0.196;2022-12-16T10:57:05;101098.09;;;18.22;22.83
63916;BME280;50094;51.356;-0.196;2022-12-16T10:59:36;101095.99;;;18.24;22.84
63916;BME280;50094;51.356;-0.196;2022-12-16T11:02:16;101092.68;;;18.23;22.84
63916;BME280;50094;51.356;-0.196;2022-12-16T11:04:44;101090.90;;;18.29;22.84
63916;BME280;50094;51.356;-0.196;2022-12-16T11:07:52;101087.62;;;18.21;22.89
63916;BME280;50094;51.356;-0.196;2022-12-16T11:10:30;101088.92;;;18.28;22.89
63916;BME280;50094;51.356;-0.196;2022-12-16T11:13:11;101087.03;;;18.31;22.89
63916;BME280;50094;51.356;-0.196;2022-12-16T11:15:43;101084.16;;;18.27;22.92
63916;BME280;50094;51.356;-0.196;2022-12-16T11:18:17;101080.77;;;18.26;22.92
63916;BME280;50094;51.356;-0.196;2022-12-16T11:20:45;101078.54;;;18.23;22.94
63916;BME280;50094;51.356;-0.196;2022-12-16T11:23:29;101076.07;;;18.29;22.96
63916;BME280;50094;51.356;-0.196;2022-12-16T11:26:14;101078.26;;;18.28;22.97
63916;BME280;50094;51.356;-0.196;2022-12-16T11:28:42;101078.89;;;18.27;22.97
63916;BME280;50094;51.356;-0.196;2022-12-16T11:31:12;101081.22;;;18.49;23.00
63916;BME280;50094;51.356;-0.196;2022-12-16T11:33:41;101073.66;;;18.28;23.02
63916;BME280;50094;51.356;-0.196;2022-12-16T11:36:13;101068.79;;;18.32;23.02
63916;BME280;50094;51.356;-0.196;2022-12-16T11:38:44;101067.77;;;18.39;22.99
63916;BME280;50094;51.356;-0.196;2022-12-16T11:41:21;101068.86;;;18.44;22.96
63916;BME280;50094;51.356;-0.196;2022-12-16T11:43:51;101069.96;;;18.42;22.96
63916;BME280;50094;51.356;-0.196;2022-12-16T11:46:23;101067.38;;;18.37;22.96
63916;BME280;50094;51.356;-0.196;2022-12-16T11:48:55;101069.29;;;18.33;22.96
63916;BME280;50094;51.356;-0.196;2022-12-16T11:51:26;101070.38;;;18.34;22.96
63916;BME280;50094;51.356;-0.196;2022-12-16T11:53:59;101065.91;;;18.30;22.95
63916;BME280;50094;51.356;-0.196;2022-12-16T11:56:34;101067.24;;;18.31;22.95
63916;BME280;50094;51.356;-0.196;2022-12-16T11:59:08;101066.88;;;18.30;22.95
63916;BME280;50094;51.356;-0.196;2022-12-16T12:01:44;101071.03;;;18.29;22.95
63916;BME280;50094;51.356;-0.196;2022-12-16T12:04:12;101070.75;;;18.59;22.95
63916;BME280;50094;51.356;-0.196;2022-12-16T12:06:54;101073.15;;;18.52;22.95
63916;BME280;50094;51.356;-0.196;2022-12-16T12:09:26;101076.73;;;18.15;23.00
63916;BME280;50094;51.356;-0.196;2022-12-16T12:11:57;101076.30;;;18.48;22.98
63916;BME280;50094;51.356;-0.196;2022-12-16T12:14:37;101078.33;;;18.11;23.03
63916;BME280;50094;51.356;-0.196;2022-12-16T12:17:17;101077.97;;;17.83;23.05
63916;BME280;50094;51.356;-0.196;2022-12-16T12:19:55;101077.38;;;18.02;23.10
63916;BME280;50094;51.356;-0.196;2022-12-16T12:22:33;101081.29;;;18.31;23.11
63916;BME280;50094;51.356;-0.196;2022-12-16T12:25:07;101081.73;;;18.08;23.12
63916;BME280;50094;51.356;-0.196;2022-12-16T12:27:43;101084.15;;;18.28;23.15
63916;BME280;50094;51.356;-0.196;2022-12-16T12:30:17;101078.44;;;18.10;23.23
63916;BME280;50094;51.356;-0.196;2022-12-16T12:32:52;101078.03;;;18.09;23.15
63916;BME280;50094;51.356;-0.196;2022-12-16T12:35:39;101074.95;;;18.33;23.17
63916;BME280;50094;51.356;-0.196;2022-12-16T12:38:13;101078.11;;;18.26;23.21
63916;BME280;50094;51.356;-0.196;2022-12-16T12:40:48;101074.43;;;18.23;23.24
63916;BME280;50094;51.356;-0.196;2022-12-16T12:43:30;101079.52;;;17.93;23.27
63916;BME280;50094;51.356;-0.196;2022-12-16T12:46:06;101080.70;;;17.89;23.30
63916;BME280;50094;51.356;-0.196;2022-12-16T12:48:41;101085.26;;;17.91;23.30
63916;BME280;50094;51.356;-0.196;2022-12-16T12:51:15;101086.53;;;18.38;23.31
63916;BME280;50094;51.356;-0.196;2022-12-16T12:53:53;101087.09;;;17.92;23.32
63916;BME280;50094;51.356;-0.196;2022-12-16T12:56:30;101088.19;;;17.70;23.33